Time;durP1;ratioP1;P1;durP2;ratioP2;P2;SDS_P1;SDS_P2;PMS_P1;PMS_P2;Temp;Humidity;BMP_temperature;BMP_pressure;BME280_temperature;BME280_humidity;BME280_pressure;Samples;Min_cycle;Max_cycle;Signal;HPM_P1;HPM_P2
2020/12/17 00:00:41;;;;;;;22.88;18.65;;;9.70;99.90;;;;;;5076670;28;20215;-84
2020/12/17 00:03:08;;;;;;;19.05;16.83;;;9.70;99.90;;;;;;5076238;28;20218;-85
2020/12/17 00:05:35;;;;;;;22.33;18.30;;;9.60;99.90;;;;;;5076772;28;20229;-82
2020/12/17 00:08:02;;;;;;;21.25;18.25;;;9.60;99.90;;;;;;5076505;28;20195;-84
2020/12/17 00:10:28;;;;;;;26.25;21.48;;;9.50;99.90;;;;;;5075896;28;20222;-84
2020/12/17 00:12:56;;;;;;;23.55;19.90;;;9.50;99.90;;;;;;5074861;28;20250;-82
2020/12/17 00:15:23;;;;;;;20.30;17.85;;;9.50;99.90;;;;;;5074964;28;20215;-84
2020/12/17 00:17:51;;;;;;;17.65;15.35;;;9.40;99.90;;;;;;5074692;28;20215;-84
2020/12/17 00:20:20;;;;;;;22.10;17.98;;;9.40;99.90;;;;;;5070812;28;20219;-85
2020/12/17 00:22:47;;;;;;;19.75;17.05;;;9.40;99.90;;;;;;5062973;28;20217;-83
2020/12/17 00:25:17;;;;;;;18.80;16.80;;;9.30;99.90;;;;;;5062468;28;20211;-85
2020/12/17 00:27:45;;;;;;;19.65;16.73;;;9.40;99.90;;;;;;5063350;28;20204;-85
2020/12/17 00:30:14;;;;;;;23.70;18.05;;;9.50;99.90;;;;;;5062138;28;20195;-84
2020/12/17 00:32:41;;;;;;;20.35;16.90;;;9.40;99.90;;;;;;5062350;28;20199;-85
2020/12/17 00:35:09;;;;;;;20.83;18.27;;;9.30;99.90;;;;;;5063728;28;20196;-84
2020/12/17 00:37:38;;;;;;;19.90;17.60;;;9.30;99.90;;;;;;5070051;28;20192;-85
2020/12/17 00:40:06;;;;;;;21.65;17.92;;;9.30;99.90;;;;;;5060189;28;20212;-85
2020/12/17 00:42:33;;;;;;;24.02;17.98;;;9.30;99.90;;;;;;5074022;28;20204;-84
2020/12/17 00:45:00;;;;;;;21.60;18.63;;;9.20;99.90;;;;;;5058000;28;20210;-83
2020/12/17 00:47:29;;;;;;;21.20;18.50;;;9.20;99.90;;;;;;5074536;28;20203;-85
2020/12/17 00:49:56;;;;;;;25.63;20.17;;;9.30;99.90;;;;;;5073695;28;20223;-84
2020/12/17 00:52:23;;;;;;;22.15;17.55;;;9.20;99.90;;;;;;5062656;28;20199;-85
2020/12/17 00:54:51;;;;;;;21.83;17.90;;;9.20;99.90;;;;;;5061726;28;20299;-85
2020/12/17 00:57:18;;;;;;;22.13;19.55;;;9.20;99.90;;;;;;5063372;28;20416;-84
2020/12/17 00:59:45;;;;;;;23.67;19.80;;;9.20;99.90;;;;;;5065861;28;20208;-84
2020/12/17 01:02:12;;;;;;;22.30;17.65;;;9.30;99.90;;;;;;5062311;28;20223;-84
2020/12/17 01:04:38;;;;;;;23.27;19.15;;;9.20;99.90;;;;;;5060714;28;20211;-86
2020/12/17 01:07:05;;;;;;;18.95;16.48;;;9.20;99.90;;;;;;5062659;28;20212;-84
2020/12/17 01:09:31;;;;;;;20.63;18.38;;;9.20;99.90;;;;;;5061794;28;20678;-83
2020/12/17 01:11:59;;;;;;;20.80;17.10;;;9.20;99.90;;;;;;5061518;28;20267;-83
2020/12/17 01:14:26;;;;;;;22.27;18.38;;;9.30;99.90;;;;;;5062435;28;20230;-85
2020/12/17 01:16:53;;;;;;;22.80;19.00;;;9.20;99.90;;;;;;5066377;28;20203;-84
2020/12/17 01:19:20;;;;;;;22.65;18.17;;;9.20;99.90;;;;;;5066049;28;20215;-84
2020/12/17 01:21:50;;;;;;;22.17;17.42;;;9.20;99.90;;;;;;5062771;28;20257;-84
2020/12/17 01:24:17;;;;;;;22.58;20.17;;;9.20;99.90;;;;;;5058119;28;20219;-84
2020/12/17 01:26:44;;;;;;;23.25;18.90;;;9.20;99.90;;;;;;5058155;28;20215;-83
2020/12/17 01:29:11;;;;;;;23.38;17.90;;;9.20;99.90;;;;;;5058065;28;20203;-84
2020/12/17 01:31:38;;;;;;;20.17;17.48;;;9.10;99.90;;;;;;5058162;28;20200;-86
2020/12/17 01:34:05;;;;;;;19.60;16.58;;;9.20;99.90;;;;;;5065152;28;20237;-83
2020/12/17 01:36:33;;;;;;;24.30;20.20;;;9.30;99.90;;;;;;5073250;28;20191;-83
2020/12/17 01:39:00;;;;;;;29.65;20.38;;;9.30;99.90;;;;;;5073441;28;20294;-83
2020/12/17 01:41:27;;;;;;;27.20;18.90;;;9.30;99.90;;;;;;5072600;28;20219;-84
2020/12/17 01:43:59;;;;;;;21.73;19.02;;;9.20;99.90;;;;;;5073596;28;20215;-83
2020/12/17 01:46:27;;;;;;;20.67;16.92;;;9.10;99.90;;;;;;5074257;28;20293;-83
2020/12/17 01:48:54;;;;;;;20.77;17.58;;;9.10;99.90;;;;;;5073977;28;20207;-83
2020/12/17 01:51:21;;;;;;;26.25;19.85;;;9.10;99.90;;;;;;5071460;28;20199;-85
2020/12/17 01:53:47;;;;;;;23.63;20.67;;;9.20;99.90;;;;;;5068884;28;20223;-84
2020/12/17 01:56:21;;;;;;;24.90;18.73;;;9.20;99.90;;;;;;5067084;28;20199;-84
2020/12/17 01:58:57;;;;;;;21.95;18.45;;;9.20;99.90;;;;;;5050763;28;20635;-84
2020/12/17 02:01:29;;;;;;;20.95;17.40;;;9.20;99.90;;;;;;5068767;28;20341;-83
2020/12/17 02:03:55;;;;;;;23.95;19.65;;;9.20;99.90;;;;;;5068547;28;20266;-85
2020/12/17 02:06:22;;;;;;;26.42;20.50;;;9.20;99.90;;;;;;5067942;28;20656;-85
2020/12/17 02:08:51;;;;;;;25.70;20.17;;;9.10;99.90;;;;;;5067522;28;20203;-85
2020/12/17 02:11:20;;;;;;;24.35;20.67;;;9.10;99.90;;;;;;5069855;28;20289;-83
2020/12/17 02:13:47;;;;;;;28.00;21.00;;;9.00;99.90;;;;;;5077237;28;20221;-82
2020/12/17 02:16:15;;;;;;;23.40;19.45;;;9.00;99.90;;;;;;5080555;28;20200;-81
2020/12/17 02:18:42;;;;;;;25.83;19.88;;;8.80;99.90;;;;;;5080384;28;20250;-83
2020/12/17 02:21:09;;;;;;;28.15;21.52;;;9.10;99.90;;;;;;5080397;28;20219;-81
2020/12/17 02:23:38;;;;;;;23.52;20.80;;;8.90;99.90;;;;;;5068547;28;20208;-82
2020/12/17 02:26:06;;;;;;;22.95;19.25;;;8.90;99.90;;;;;;5061725;28;20203;-84
2020/12/17 02:28:34;;;;;;;24.58;19.67;;;9.00;99.90;;;;;;5059140;28;20219;-84
2020/12/17 02:31:00;;;;;;;24.00;18.20;;;9.00;99.90;;;;;;5061527;28;20237;-84
2020/12/17 02:33:27;;;;;;;22.60;19.27;;;9.10;99.90;;;;;;5041300;28;20320;-84
2020/12/17 02:35:53;;;;;;;27.90;20.10;;;9.10;99.90;;;;;;5040895;28;20235;-84
2020/12/17 02:38:20;;;;;;;22.75;19.10;;;9.10;99.90;;;;;;5041360;28;20246;-84
2020/12/17 02:40:47;;;;;;;19.77;17.67;;;9.10;99.90;;;;;;5040942;28;20337;-84
2020/12/17 02:43:14;;;;;;;27.73;21.60;;;9.10;99.90;;;;;;5040886;28;20270;-85
2020/12/17 02:45:45;;;;;;;26.85;20.70;;;9.10;99.90;;;;;;5051298;28;20215;-82
2020/12/17 02:48:12;;;;;;;27.20;21.00;;;9.10;99.90;;;;;;5057894;28;20239;-84
2020/12/17 02:50:40;;;;;;;26.00;21.33;;;9.10;99.90;;;;;;5058030;28;20211;-82
2020/12/17 02:53:07;;;;;;;24.08;21.02;;;9.10;99.90;;;;;;5065175;28;20219;-83
2020/12/17 02:55:34;;;;;;;27.33;19.52;;;9.00;99.90;;;;;;5076983;28;20195;-84
2020/12/17 02:58:00;;;;;;;23.05;20.17;;;9.00;99.90;;;;;;5061735;28;20242;-84
2020/12/17 03:00:28;;;;;;;24.35;19.02;;;9.00;99.90;;;;;;5061687;28;20223;-84
2020/12/17 03:02:55;;;;;;;22.95;20.50;;;9.10;99.90;;;;;;5059830;28;20220;-85
2020/12/17 03:05:22;;;;;;;25.08;21.67;;;9.10;99.90;;;;;;5059736;28;20196;-85
2020/12/17 03:07:48;;;;;;;25.58;20.50;;;9.10;99.90;;;;;;5059511;28;20203;-83
2020/12/17 03:10:15;;;;;;;25.88;21.00;;;9.10;99.90;;;;;;5058958;28;20200;-82
2020/12/17 03:12:42;;;;;;;30.02;21.85;;;9.20;99.90;;;;;;5057214;28;20203;-84
2020/12/17 03:15:09;;;;;;;26.17;21.88;;;9.20;99.90;;;;;;5109340;22;20225;-78
2020/12/17 03:17:37;;;;;;;25.83;22.65;;;9.20;99.90;;;;;;5095439;28;20187;-77
2020/12/17 03:20:06;;;;;;;25.90;19.05;;;9.20;99.90;;;;;;5099761;28;20779;-78
2020/12/17 03:22:33;;;;;;;27.77;22.13;;;9.20;99.90;;;;;;5099761;28;20444;-77
2020/12/17 03:24:59;;;;;;;26.60;23.13;;;9.20;99.90;;;;;;5082502;28;20216;-80
2020/12/17 03:27:26;;;;;;;25.00;20.50;;;9.10;99.90;;;;;;5076971;28;20192;-77
2020/12/17 03:29:53;;;;;;;26.20;20.50;;;9.20;99.90;;;;;;5079826;28;20192;-78
2020/12/17 03:32:19;;;;;;;25.92;21.05;;;9.20;99.90;;;;;;5097556;28;20187;-77
2020/12/17 03:34:47;;;;;;;23.48;19.55;;;9.20;99.90;;;;;;5096999;28;20240;-81
2020/12/17 03:37:14;;;;;;;27.10;23.08;;;9.20;99.90;;;;;;5087096;28;20250;-79
2020/12/17 03:39:41;;;;;;;27.25;21.73;;;9.20;99.90;;;;;;5097115;28;20175;-78
2020/12/17 03:42:08;;;;;;;30.65;21.77;;;9.30;99.90;;;;;;5097967;28;20237;-78
2020/12/17 03:44:34;;;;;;;29.65;23.00;;;9.30;99.90;;;;;;5096553;28;20215;-83
2020/12/17 03:47:01;;;;;;;26.08;21.33;;;9.20;99.90;;;;;;5089463;28;20191;-82
2020/12/17 03:49:28;;;;;;;26.77;23.55;;;9.20;99.90;;;;;;5093236;28;20202;-79
2020/12/17 03:51:55;;;;;;;30.73;24.58;;;9.20;99.90;;;;;;5097307;28;20199;-79
2020/12/17 03:54:22;;;;;;;32.03;23.42;;;9.10;99.90;;;;;;5097741;28;20203;-78
2020/12/17 03:56:48;;;;;;;29.63;22.95;;;9.10;99.90;;;;;;5096531;28;20222;-80
2020/12/17 03:59:15;;;;;;;31.67;24.02;;;9.10;99.90;;;;;;5093460;28;20269;-83
2020/12/17 04:01:42;;;;;;;28.58;22.70;;;9.20;99.90;;;;;;5095314;28;20218;-80
2020/12/17 04:04:08;;;;;;;32.33;24.38;;;9.20;99.90;;;;;;5092739;28;20231;-82
2020/12/17 04:06:35;;;;;;;27.63;22.23;;;9.10;99.90;;;;;;5088310;28;20206;-82
2020/12/17 04:09:02;;;;;;;34.30;26.48;;;9.10;99.90;;;;;;5091113;28;20229;-82
2020/12/17 04:11:29;;;;;;;28.67;22.77;;;9.10;99.90;;;;;;5088020;28;20203;-82
2020/12/17 04:13:55;;;;;;;36.90;23.85;;;9.10;99.90;;;;;;5087396;28;20299;-81
2020/12/17 04:16:22;;;;;;;28.35;21.30;;;9.10;99.90;;;;;;5087547;28;20274;-79
2020/12/17 04:18:48;;;;;;;30.63;23.20;;;9.10;99.90;;;;;;5087292;28;20587;-81
2020/12/17 04:21:15;;;;;;;27.33;21.85;;;9.20;99.90;;;;;;5086758;28;20251;-81
2020/12/17 04:23:41;;;;;;;29.48;23.38;;;9.20;99.90;;;;;;5086248;28;20191;-81
2020/12/17 04:26:12;;;;;;;28.88;20.92;;;9.20;99.90;;;;;;5086126;28;20222;-82
2020/12/17 04:28:39;;;;;;;29.80;23.05;;;9.20;99.90;;;;;;5086821;28;20643;-80
2020/12/17 04:31:06;;;;;;;34.47;24.25;;;9.30;99.90;;;;;;5086749;28;20229;-81
2020/12/17 04:33:32;;;;;;;31.15;23.90;;;9.30;99.90;;;;;;5086846;28;20203;-79
2020/12/17 04:35:59;;;;;;;27.55;18.60;;;9.20;99.90;;;;;;5086290;28;20199;-81
2020/12/17 04:38:25;;;;;;;29.98;23.40;;;9.30;99.90;;;;;;5086587;28;20233;-80
2020/12/17 04:40:52;;;;;;;29.52;21.80;;;9.30;99.90;;;;;;5086043;28;20207;-82
2020/12/17 04:43:20;;;;;;;28.05;22.55;;;9.30;99.90;;;;;;5086541;28;20553;-80
2020/12/17 04:45:46;;;;;;;30.00;23.63;;;9.30;99.90;;;;;;5086754;28;20226;-81
2020/12/17 04:48:17;;;;;;;31.90;22.92;;;9.40;99.90;;;;;;5088065;28;20203;-79
2020/12/17 04:50:45;;;;;;;33.05;25.20;;;9.30;99.90;;;;;;5091710;28;20187;-83
2020/12/17 04:53:15;;;;;;;27.38;21.50;;;9.30;99.90;;;;;;5086691;28;20293;-80
2020/12/17 04:55:42;;;;;;;28.83;23.20;;;9.30;99.90;;;;;;5086141;28;20646;-81
2020/12/17 04:58:10;;;;;;;30.17;23.55;;;9.30;99.90;;;;;;5086336;28;20211;-80
2020/12/17 05:00:40;;;;;;;37.50;24.05;;;9.20;99.90;;;;;;5086122;28;20762;-81
2020/12/17 05:03:13;;;;;;;28.42;22.60;;;9.20;99.90;;;;;;5088200;28;20253;-79
2020/12/17 05:05:39;;;;;;;28.90;23.15;;;9.30;99.90;;;;;;5093701;28;20217;-77
2020/12/17 05:08:06;;;;;;;28.08;22.55;;;9.30;99.90;;;;;;5096887;28;20206;-78
2020/12/17 05:10:33;;;;;;;29.52;22.90;;;9.30;99.90;;;;;;5079465;28;20210;-78
2020/12/17 05:13:01;;;;;;;31.33;23.27;;;9.30;99.90;;;;;;5097961;28;20203;-77
2020/12/17 05:15:28;;;;;;;31.67;24.25;;;9.30;99.90;;;;;;5097675;28;20226;-78
2020/12/17 05:17:58;;;;;;;30.58;21.70;;;9.20;99.90;;;;;;5097746;28;20194;-78
2020/12/17 05:20:27;;;;;;;32.50;24.42;;;9.20;99.90;;;;;;5097993;28;20181;-79
2020/12/17 05:22:54;;;;;;;40.20;24.70;;;9.20;99.90;;;;;;5097839;28;20195;-78
2020/12/17 05:25:21;;;;;;;33.38;23.88;;;9.30;99.90;;;;;;5097449;28;20223;-78
2020/12/17 05:27:50;;;;;;;30.63;23.58;;;9.30;99.90;;;;;;5097989;28;20187;-78
2020/12/17 05:30:19;;;;;;;34.33;24.48;;;9.30;99.90;;;;;;5097705;28;20183;-78
2020/12/17 05:32:46;;;;;;;36.53;26.17;;;9.30;99.90;;;;;;5094927;28;20537;-80
2020/12/17 05:35:17;;;;;;;32.13;23.73;;;9.40;99.90;;;;;;5090667;28;20248;-79
2020/12/17 05:37:45;;;;;;;28.48;23.40;;;9.30;99.90;;;;;;5090885;28;20206;-79
2020/12/17 05:40:13;;;;;;;26.90;21.75;;;9.40;99.90;;;;;;5088595;28;20191;-80
2020/12/17 05:42:41;;;;;;;28.77;21.60;;;9.50;99.90;;;;;;5087926;28;20222;-78
2020/12/17 05:45:23;;;;;;;32.15;22.85;;;9.50;99.90;;;;;;5088706;28;20309;-77
2020/12/17 05:48:08;;;;;;;26.13;21.33;;;9.50;99.90;;;;;;5085799;28;20217;-79
2020/12/17 05:50:47;;;;;;;33.50;26.00;;;9.60;99.90;;;;;;5082382;28;20655;-80
2020/12/17 05:53:15;;;;;;;26.73;22.08;;;9.60;99.90;;;;;;5080610;28;20184;-79
2020/12/17 05:55:42;;;;;;;28.98;22.58;;;9.60;99.90;;;;;;5089729;28;20229;-81
2020/12/17 05:58:12;;;;;;;24.70;20.77;;;9.60;99.90;;;;;;5093344;28;20205;-81
2020/12/17 06:00:38;;;;;;;29.40;22.23;;;9.40;99.90;;;;;;5093902;28;20356;-80
2020/12/17 06:03:16;;;;;;;29.88;22.73;;;9.60;99.90;;;;;;5092846;28;20206;-85
2020/12/17 06:05:45;;;;;;;29.70;22.98;;;9.60;99.90;;;;;;5090231;28;20279;-80
2020/12/17 06:08:17;;;;;;;30.55;24.55;;;9.60;99.90;;;;;;5092246;28;20233;-80
2020/12/17 06:10:48;;;;;;;31.63;22.95;;;9.60;99.90;;;;;;5090275;28;20224;-77
2020/12/17 06:13:16;;;;;;;25.80;21.23;;;9.60;99.90;;;;;;5087952;28;20194;-80
2020/12/17 06:15:48;;;;;;;29.92;22.33;;;9.60;99.90;;;;;;5087891;28;20237;-83
2020/12/17 06:18:17;;;;;;;28.23;21.75;;;9.60;99.90;;;;;;5072880;28;20211;-83
2020/12/17 06:20:48;;;;;;;31.48;23.55;;;9.50;99.90;;;;;;5090090;28;20226;-80
2020/12/17 06:23:15;;;;;;;28.35;22.25;;;9.50;99.90;;;;;;5091239;28;20203;-80
2020/12/17 06:25:45;;;;;;;36.67;24.77;;;9.50;99.90;;;;;;5091913;28;20344;-81
2020/12/17 06:28:44;;;;;;;35.22;26.63;;;9.50;99.90;;;;;;5091294;28;20213;-83
2020/12/17 06:31:14;;;;;;;32.55;25.30;;;9.50;99.90;;;;;;5091061;28;20195;-80
2020/12/17 06:33:42;;;;;;;32.20;23.48;;;9.40;99.90;;;;;;5090290;28;20198;-79
2020/12/17 06:36:16;;;;;;;33.10;24.20;;;9.50;99.90;;;;;;5091717;28;20460;-82
2020/12/17 06:38:44;;;;;;;34.70;26.23;;;9.50;99.90;;;;;;5091572;28;20206;-81
2020/12/17 06:41:22;;;;;;;32.15;24.17;;;9.40;99.90;;;;;;5091820;28;20234;-80
2020/12/17 06:43:49;;;;;;;33.25;22.60;;;9.40;99.90;;;;;;5094583;28;20250;-81
2020/12/17 06:46:36;;;;;;;33.53;21.40;;;9.40;99.90;;;;;;5093908;28;20225;-82
2020/12/17 06:49:05;;;;;;;31.10;24.38;;;9.40;99.90;;;;;;5092379;28;20199;-80
2020/12/17 06:51:40;;;;;;;36.33;26.33;;;9.30;99.90;;;;;;5093636;28;20226;-79
2020/12/17 06:54:09;;;;;;;32.30;23.60;;;9.30;99.90;;;;;;5100045;28;20209;-78
2020/12/17 06:56:40;;;;;;;25.63;21.25;;;9.40;99.90;;;;;;5100337;28;20175;-78
2020/12/17 06:59:18;;;;;;;31.38;23.33;;;9.40;99.90;;;;;;5095147;28;20200;-83
2020/12/17 07:01:46;;;;;;;29.88;23.83;;;9.40;99.90;;;;;;5091362;28;20222;-83
2020/12/17 07:04:13;;;;;;;30.08;24.88;;;9.40;99.90;;;;;;5090024;28;20222;-82
2020/12/17 07:06:40;;;;;;;30.88;25.05;;;9.40;99.90;;;;;;5091410;28;20586;-82
2020/12/17 07:09:07;;;;;;;28.17;21.85;;;9.50;99.90;;;;;;5091150;28;20274;-81
2020/12/17 07:11:38;;;;;;;34.22;25.52;;;9.40;99.90;;;;;;5090988;28;20202;-80
2020/12/17 07:14:06;;;;;;;31.65;22.83;;;9.40;99.90;;;;;;5090395;28;20239;-79
2020/12/17 07:16:33;;;;;;;27.55;21.00;;;9.50;99.90;;;;;;5091871;28;20195;-81
2020/12/17 07:19:23;;;;;;;27.63;24.08;;;9.50;99.90;;;;;;5090567;28;20202;-81
2020/12/17 07:22:03;;;;;;;33.22;24.52;;;9.60;99.90;;;;;;5093446;28;20257;-82
2020/12/17 07:24:34;;;;;;;32.05;23.88;;;9.50;99.90;;;;;;5092677;28;20229;-88
2020/12/17 07:27:12;;;;;;;34.63;24.88;;;9.50;99.90;;;;;;5092314;28;20195;-82
2020/12/17 07:29:43;;;;;;;34.58;24.05;;;9.50;99.90;;;;;;5092905;28;20241;-83
2020/12/17 07:32:30;;;;;;;28.33;22.25;;;9.50;99.90;;;;;;5091940;28;20226;-80
2020/12/17 07:34:59;;;;;;;24.60;19.83;;;9.70;99.90;;;;;;5090429;28;20233;-82
2020/12/17 07:37:38;;;;;;;31.48;23.55;;;9.70;99.90;;;;;;5091722;28;20711;-80
2020/12/17 07:40:15;;;;;;;30.88;22.40;;;9.70;99.90;;;;;;5094312;28;20222;-81
2020/12/17 07:42:42;;;;;;;28.95;21.15;;;9.80;99.90;;;;;;5092849;28;20217;-82
2020/12/17 07:45:09;;;;;;;28.35;21.90;;;9.80;99.90;;;;;;5090745;28;20227;-81
2020/12/17 07:47:36;;;;;;;24.95;20.48;;;9.90;99.90;;;;;;5090329;28;20199;-81
2020/12/17 07:50:03;;;;;;;25.10;21.98;;;9.90;99.90;;;;;;5093806;28;20206;-82
2020/12/17 07:52:31;;;;;;;26.08;20.55;;;9.90;99.90;;;;;;5093204;28;20183;-82
2020/12/17 07:55:00;;;;;;;27.58;21.13;;;9.90;99.90;;;;;;5091933;28;20296;-80
2020/12/17 07:57:27;;;;;;;22.77;20.27;;;10.00;99.90;;;;;;5083694;28;20206;-78
2020/12/17 07:59:54;;;;;;;22.70;18.13;;;10.10;99.90;;;;;;5092830;28;20233;-81
2020/12/17 08:02:20;;;;;;;23.48;19.63;;;10.10;99.90;;;;;;5092570;28;20218;-80
2020/12/17 08:04:48;;;;;;;23.30;18.58;;;10.10;99.90;;;;;;5091111;28;20230;-80
2020/12/17 08:07:15;;;;;;;26.35;20.60;;;10.20;99.90;;;;;;5093095;28;20206;-81
2020/12/17 08:09:42;;;;;;;26.02;21.00;;;10.30;99.90;;;;;;5093777;28;20198;-80
2020/12/17 08:12:11;;;;;;;25.45;20.02;;;10.30;99.90;;;;;;5094744;28;20195;-80
2020/12/17 08:14:38;;;;;;;23.38;18.98;;;10.30;99.90;;;;;;5076560;28;20283;-80
2020/12/17 08:17:06;;;;;;;22.83;17.15;;;10.20;99.90;;;;;;5076990;28;20231;-80
2020/12/17 08:19:33;;;;;;;20.23;18.13;;;10.30;99.90;;;;;;5072562;28;20207;-82
2020/12/17 08:24:51;;;;;;;23.00;19.55;;;10.30;99.90;;;;;;5084626;28;20215;-80
2020/12/17 08:27:21;;;;;;;22.73;20.27;;;10.30;99.90;;;;;;5093680;28;20287;-81
2020/12/17 08:29:48;;;;;;;25.27;20.67;;;10.40;99.90;;;;;;5086374;28;20264;-80
2020/12/17 08:32:15;;;;;;;28.00;19.52;;;10.40;99.90;;;;;;5090623;28;20205;-79
2020/12/17 08:34:52;;;;;;;24.92;18.60;;;10.40;99.90;;;;;;5077165;28;20219;-80
2020/12/17 08:37:19;;;;;;;25.40;20.10;;;10.40;99.90;;;;;;5070355;28;20442;-81
2020/12/17 08:39:46;;;;;;;22.13;17.60;;;10.50;99.90;;;;;;5063162;28;20203;-81
2020/12/17 08:42:15;;;;;;;25.38;18.55;;;10.60;99.90;;;;;;5069886;28;20234;-82
2020/12/17 08:44:45;;;;;;;23.25;18.20;;;10.60;99.90;;;;;;5069190;28;20223;-81
2020/12/17 08:47:15;;;;;;;25.23;20.88;;;10.70;99.90;;;;;;5072385;28;20218;-80
2020/12/17 08:49:44;;;;;;;25.20;19.33;;;10.70;99.90;;;;;;5054738;28;20664;-79
2020/12/17 08:52:11;;;;;;;25.58;19.65;;;10.70;99.90;;;;;;5071624;28;20204;-79
2020/12/17 08:54:40;;;;;;;23.25;18.73;;;10.70;99.90;;;;;;5084834;28;20214;-78
2020/12/17 08:57:08;;;;;;;21.38;18.55;;;10.70;99.90;;;;;;5097766;28;20213;-78
2020/12/17 08:59:35;;;;;;;19.27;16.38;;;10.70;99.90;;;;;;5097167;28;20191;-80
2020/12/17 09:02:03;;;;;;;21.95;18.23;;;10.80;99.90;;;;;;5096883;28;20242;-79
2020/12/17 09:04:30;;;;;;;20.40;18.33;;;10.90;99.90;;;;;;5097033;28;20219;-79
2020/12/17 09:07:01;;;;;;;22.00;18.00;;;10.90;99.90;;;;;;5096870;28;20190;-79
2020/12/17 09:09:29;;;;;;;20.50;16.30;;;10.80;99.90;;;;;;5094929;28;20203;-81
2020/12/17 09:11:58;;;;;;;22.05;17.90;;;10.90;99.90;;;;;;5095976;28;20183;-78
2020/12/17 09:14:29;;;;;;;21.10;16.05;;;10.90;99.90;;;;;;5094571;28;20257;-80
2020/12/17 09:17:09;;;;;;;21.17;16.95;;;10.90;99.90;;;;;;5089644;28;20279;-79
2020/12/17 09:19:37;;;;;;;19.23;16.48;;;10.90;99.90;;;;;;5073918;28;20180;-81
2020/12/17 09:22:04;;;;;;;18.23;15.25;;;10.90;99.90;;;;;;5074070;28;20195;-81
2020/12/17 09:24:32;;;;;;;19.73;16.73;;;10.90;99.90;;;;;;5083290;28;20238;-79
2020/12/17 09:27:13;;;;;;;17.48;15.57;;;10.80;99.90;;;;;;5093470;28;20213;-80
2020/12/17 09:29:40;;;;;;;22.10;18.02;;;10.90;99.90;;;;;;5092496;28;20191;-79
2020/12/17 09:32:18;;;;;;;21.15;17.92;;;10.90;99.90;;;;;;5092862;28;20199;-78
2020/12/17 09:34:46;;;;;;;17.15;15.10;;;10.80;99.90;;;;;;5092472;28;20222;-81
2020/12/17 09:37:12;;;;;;;19.13;16.55;;;10.90;99.90;;;;;;5088458;28;20214;-81
2020/12/17 09:39:43;;;;;;;17.63;15.68;;;10.90;99.90;;;;;;5088141;28;20286;-79
2020/12/17 09:42:16;;;;;;;18.92;17.02;;;10.80;99.90;;;;;;5091641;28;20691;-79
2020/12/17 09:44:46;;;;;;;18.75;15.63;;;10.80;99.90;;;;;;5092510;28;20225;-80
2020/12/17 09:47:12;;;;;;;20.33;17.80;;;10.70;99.90;;;;;;5091961;28;20229;-81
2020/12/17 09:49:40;;;;;;;21.10;16.33;;;10.70;99.90;;;;;;5091258;28;20245;-79
2020/12/17 09:52:10;;;;;;;20.30;17.02;;;10.70;99.90;;;;;;5091129;28;20287;-81
2020/12/17 09:54:41;;;;;;;18.30;16.40;;;10.80;99.90;;;;;;5091921;28;20226;-81
2020/12/17 09:57:10;;;;;;;18.88;16.38;;;10.70;99.90;;;;;;5093283;28;20239;-79
2020/12/17 09:59:38;;;;;;;24.20;17.98;;;10.60;99.90;;;;;;5093547;28;20201;-79
2020/12/17 10:02:07;;;;;;;21.05;16.75;;;10.60;99.90;;;;;;5095021;28;20217;-79
2020/12/17 10:04:34;;;;;;;17.23;15.43;;;10.60;99.90;;;;;;5095531;28;20220;-80
2020/12/17 10:07:01;;;;;;;17.60;15.80;;;10.60;99.90;;;;;;5095815;28;20247;-80
2020/12/17 10:09:29;;;;;;;18.20;16.25;;;10.60;99.90;;;;;;5096412;28;20195;-81
2020/12/17 10:11:57;;;;;;;22.25;18.15;;;10.70;99.90;;;;;;5092733;28;20200;-81
2020/12/17 10:14:24;;;;;;;23.83;17.75;;;10.70;99.90;;;;;;5093811;28;20280;-80
2020/12/17 10:16:58;;;;;;;18.25;16.30;;;10.70;99.90;;;;;;5094413;28;20262;-81
2020/12/17 10:19:25;;;;;;;15.68;13.82;;;10.70;99.90;;;;;;5096787;28;20190;-81
2020/12/17 10:21:52;;;;;;;16.92;15.32;;;10.70;99.90;;;;;;5097998;28;20212;-80
2020/12/17 10:24:20;;;;;;;20.50;18.30;;;10.70;99.90;;;;;;5098179;28;20226;-82
2020/12/17 10:26:48;;;;;;;17.48;15.52;;;10.70;99.90;;;;;;5098433;28;20191;-80
2020/12/17 10:29:15;;;;;;;25.15;15.60;;;10.60;99.90;;;;;;5098516;28;20191;-80
2020/12/17 10:31:41;;;;;;;17.90;16.02;;;10.60;99.90;;;;;;5099713;28;20289;-79
2020/12/17 10:34:08;;;;;;;16.20;14.60;;;10.70;99.90;;;;;;5098451;28;20237;-80
2020/12/17 10:36:38;;;;;;;17.48;15.43;;;10.60;99.90;;;;;;5099566;28;20209;-81
2020/12/17 10:39:05;;;;;;;20.00;16.63;;;10.60;99.90;;;;;;5099866;28;20218;-80
2020/12/17 10:41:31;;;;;;;16.45;14.90;;;10.60;99.90;;;;;;5099514;28;20226;-81
2020/12/17 10:43:59;;;;;;;15.38;13.93;;;10.70;99.90;;;;;;5096113;28;20711;-80
2020/12/17 10:46:25;;;;;;;14.50;13.15;;;10.60;99.90;;;;;;5093186;28;20220;-80
2020/12/17 10:48:52;;;;;;;14.15;12.75;;;10.60;99.90;;;;;;5093607;28;20210;-81
2020/12/17 10:51:19;;;;;;;14.90;13.52;;;10.70;99.90;;;;;;5093366;28;20209;-81
2020/12/17 10:53:45;;;;;;;13.52;12.30;;;10.70;99.90;;;;;;5093484;28;20234;-78
2020/12/17 10:56:12;;;;;;;12.85;11.75;;;10.80;99.90;;;;;;5092436;28;20212;-80
2020/12/17 10:58:39;;;;;;;12.90;11.63;;;10.80;99.90;;;;;;5092236;28;20211;-81
2020/12/17 11:01:07;;;;;;;13.82;12.45;;;10.90;99.90;;;;;;5093101;28;20235;-80
2020/12/17 11:03:33;;;;;;;11.95;10.70;;;11.00;99.90;;;;;;5092709;28;20203;-80
2020/12/17 11:06:00;;;;;;;9.30;8.40;;;11.00;99.90;;;;;;5092916;28;20199;-81
2020/12/17 11:08:27;;;;;;;8.40;7.63;;;11.10;99.90;;;;;;5092490;28;20206;-79
2020/12/17 11:10:54;;;;;;;7.82;6.93;;;11.10;99.90;;;;;;5092409;28;20210;-80
2020/12/17 11:13:21;;;;;;;8.00;7.28;;;11.10;99.90;;;;;;5093059;28;20271;-80
2020/12/17 11:15:49;;;;;;;7.55;6.95;;;11.10;99.90;;;;;;5093119;28;20289;-80
2020/12/17 11:18:17;;;;;;;8.23;7.53;;;11.20;99.90;;;;;;5094968;28;20203;-80
2020/12/17 11:20:44;;;;;;;9.30;8.45;;;11.20;99.90;;;;;;5093108;28;20203;-81
2020/12/17 11:23:11;;;;;;;9.73;8.70;;;11.30;99.90;;;;;;5093068;28;20223;-82
2020/12/17 11:25:39;;;;;;;8.23;7.43;;;11.20;99.90;;;;;;5092592;28;20223;-80
2020/12/17 11:28:06;;;;;;;8.15;7.45;;;11.30;99.90;;;;;;5091874;28;20191;-80
2020/12/17 11:30:33;;;;;;;8.43;7.25;;;11.30;99.90;;;;;;5092869;28;20202;-81
2020/12/17 11:32:59;;;;;;;9.15;6.95;;;11.40;99.90;;;;;;5091382;28;20203;-81
2020/12/17 11:35:27;;;;;;;9.85;6.93;;;11.40;99.90;;;;;;5084292;28;20211;-81
2020/12/17 11:37:53;;;;;;;7.57;6.97;;;11.40;99.90;;;;;;5093096;28;20203;-81
2020/12/17 11:40:21;;;;;;;7.72;7.03;;;11.30;99.90;;;;;;5093149;28;20226;-80
2020/12/17 11:42:48;;;;;;;8.43;7.68;;;11.20;99.90;;;;;;5093012;28;20229;-80
2020/12/17 11:45:15;;;;;;;13.05;7.90;;;11.20;99.90;;;;;;5092609;28;20257;-83
2020/12/17 11:47:42;;;;;;;7.47;6.82;;;11.30;99.90;;;;;;5093447;28;20210;-79
2020/12/17 11:50:09;;;;;;;7.32;6.28;;;11.30;99.90;;;;;;5093378;28;20211;-81
2020/12/17 11:52:38;;;;;;;8.45;6.30;;;11.20;99.90;;;;;;5092321;28;20233;-81
2020/12/17 11:55:07;;;;;;;6.43;5.93;;;11.40;99.90;;;;;;5092268;28;20250;-80
2020/12/17 11:57:34;;;;;;;8.18;7.38;;;11.40;99.90;;;;;;5091282;28;20200;-80
2020/12/17 12:00:00;;;;;;;7.95;7.15;;;11.40;99.90;;;;;;5092675;28;20204;-79
2020/12/17 12:02:27;;;;;;;8.32;7.53;;;11.40;99.90;;;;;;5094110;28;20222;-81
2020/12/17 12:04:54;;;;;;;8.27;6.82;;;11.40;99.90;;;;;;5093540;28;20228;-79
2020/12/17 12:07:23;;;;;;;7.93;7.22;;;11.50;99.90;;;;;;5087379;28;20641;-81
2020/12/17 12:09:51;;;;;;;6.20;5.60;;;11.50;99.90;;;;;;5090052;28;20240;-81
2020/12/17 12:12:17;;;;;;;7.70;6.90;;;11.70;99.90;;;;;;5092812;28;20203;-81
2020/12/17 12:14:44;;;;;;;8.45;7.65;;;11.80;99.90;;;;;;5092596;28;20230;-82
2020/12/17 12:17:10;;;;;;;6.78;6.28;;;11.50;99.90;;;;;;5091498;28;20195;-80
2020/12/17 12:19:37;;;;;;;8.10;7.30;;;11.60;99.90;;;;;;5092535;28;20212;-80
2020/12/17 12:22:04;;;;;;;7.32;6.43;;;11.60;99.90;;;;;;5092296;28;20220;-80
2020/12/17 12:24:30;;;;;;;7.43;6.80;;;11.70;99.90;;;;;;5091872;28;20226;-81
2020/12/17 12:26:58;;;;;;;7.65;6.90;;;11.60;99.90;;;;;;5091147;28;20205;-80
2020/12/17 12:29:25;;;;;;;8.23;7.43;;;11.50;99.90;;;;;;5090541;28;20191;-80
2020/12/17 12:31:52;;;;;;;7.90;7.15;;;11.50;99.90;;;;;;5091971;28;20196;-80
2020/12/17 12:34:18;;;;;;;8.57;7.88;;;11.50;99.90;;;;;;5092146;28;20299;-81
2020/12/17 12:36:49;;;;;;;8.27;7.45;;;11.40;99.90;;;;;;5091923;28;20195;-80
2020/12/17 12:39:15;;;;;;;8.70;7.90;;;11.40;99.90;;;;;;5091245;28;20186;-81
2020/12/17 12:41:44;;;;;;;8.00;7.28;;;11.30;99.90;;;;;;5089798;28;20252;-80
2020/12/17 12:44:12;;;;;;;9.60;8.60;;;11.40;99.90;;;;;;5093562;28;20222;-82